LiveATC.Net - Listen to live air traffic control over the Internet!


ICAO: KGNV  IATA: GNV   Airport: Gainesville Regional Airport
City: Gainesville   State/Province: Florida
Country: United States   Continent: North America
KGNV METAR Weather: KGNV 031453Z 31008G17KT 10SM CLR 29/24 A2993 RMK AO2 SLP131 T02940239 51009
KGNV Flight Activity (FlightAware)
KGNV Webcam:  (Airport Webcams) 
KGNV Airport Info   (iFlightPlanner)
KGNV VFR Sectional Chart   (iFlightPlanner) 
KGNV IFR Low Chart   (iFlightPlanner) 

KGNV Ground/Tower
Feed Status: UP   Listeners: 0
Listen in your browser - HTML5 player (in browser, HTML5)
Click here to listen with your own player (launches your MP3 player)
Archive Access: KGNV Ground/Tower
FacilityFrequency
Gainesville Ground121.700
Gainesville Tower119.550
Feed provided by: University Air Center

NOTICE

Unauthorized use prohibited. See LiveATC.net Terms of Service


Airport/ARTCC Code
Frequency Search
(e.g., 124.400, 128.75)
Site-wide search
 


Browse Feeds
Top 50 Feeds
Coverage Map
Bad Weather Areas

LiveATC FAQ
Offer LiveATC feed
Contact LiveATC.net
Press Inquiries

LiveATC on iPhone
LiveATC on Android

Windows Phone
Windows 8/10

LiveATC Mobile
(Mobile browser)

ATC Audio Archives
Interesting Recordings

LiveATC Forums


Home Page
About LiveATC.net
Make a Donation
Terms of Use
Privacy Policy

Canadian Air Freqs

AIRMETs/SIGMETs

FAA Airport Status
Nat'l Airspace Status
Arrival Demand Charts


Server Software By:
Icecast.org
Liquidsoap